createdAt,value
2022-11-15T00:01:30.425Z,6.40
2022-11-15T00:04:15.730Z,5.85
2022-11-15T00:07:01.293Z,6.03
2022-11-15T00:09:46.673Z,5.78
2022-11-15T00:12:31.983Z,6.05
2022-11-15T00:15:17.460Z,6.03
2022-11-15T00:18:03.668Z,4.95
2022-11-15T00:20:48.923Z,5.80
2022-11-15T00:23:34.919Z,4.95
2022-11-15T00:26:20.630Z,5.05
2022-11-15T00:29:06.487Z,5.57
2022-11-15T00:31:51.775Z,5.72
2022-11-15T00:34:37.389Z,5.55
2022-11-15T00:37:22.616Z,5.43
2022-11-15T00:40:09.004Z,5.20
2022-11-15T00:42:54.135Z,5.63
2022-11-15T00:45:39.550Z,4.50
2022-11-15T00:48:25.053Z,5.18
2022-11-15T00:51:10.409Z,4.85
2022-11-15T00:53:55.937Z,5.55
2022-11-15T00:56:41.402Z,4.97
2022-11-15T00:59:26.730Z,5.60
2022-11-15T01:02:12.110Z,5.63
2022-11-15T01:04:57.303Z,4.55
2022-11-15T01:07:42.775Z,4.63
2022-11-15T01:10:28.192Z,5.00
2022-11-15T01:13:13.641Z,4.97
2022-11-15T01:15:59.344Z,4.78
2022-11-15T01:18:45.434Z,4.90
2022-11-15T01:21:31.024Z,4.53
2022-11-15T01:24:16.601Z,5.05
2022-11-15T01:27:02.060Z,5.25
2022-11-15T01:29:47.622Z,4.85
2022-11-15T01:32:33.091Z,6.30
2022-11-15T01:35:18.683Z,4.82
2022-11-15T01:38:04.140Z,4.90
2022-11-15T01:40:50.300Z,5.28
2022-11-15T01:43:37.863Z,5.40
2022-11-15T01:46:35.758Z,5.75
2022-11-15T01:49:23.495Z,5.65
2022-11-15T01:52:13.984Z,4.63
2022-11-15T01:55:08.562Z,5.55
2022-11-15T01:57:58.976Z,5.40
2022-11-15T02:00:44.805Z,4.47
2022-11-15T02:03:39.402Z,5.30
2022-11-15T02:06:24.781Z,5.13
2022-11-15T02:09:11.618Z,5.45
2022-11-15T02:11:57.565Z,4.97
2022-11-15T02:14:46.623Z,4.68
2022-11-15T02:17:59.115Z,5.28
2022-11-15T02:23:52.074Z,5.25
2022-11-15T02:27:15.243Z,5.57
2022-11-15T02:30:44.915Z,4.60
2022-11-15T02:34:06.439Z,5.82
2022-11-15T02:37:08.617Z,5.43
2022-11-15T02:43:17.019Z,5.60
2022-11-15T02:46:48.819Z,5.25
2022-11-15T02:49:36.135Z,4.72
2022-11-15T02:52:24.658Z,6.22
2022-11-15T02:55:30.236Z,6.53
2022-11-15T02:58:33.742Z,6.05
2022-11-15T03:01:57.171Z,5.47
2022-11-15T03:05:24.190Z,6.60
2022-11-15T03:08:33.531Z,5.57
2022-11-15T03:11:21.747Z,5.93
2022-11-15T03:14:12.883Z,5.68
2022-11-15T03:17:16.961Z,5.55
2022-11-15T03:20:05.908Z,6.47
2022-11-15T03:22:52.795Z,6.13
2022-11-15T03:25:43.879Z,6.78
2022-11-15T03:28:35.185Z,6.05
2022-11-15T03:31:44.455Z,6.70
2022-11-15T03:34:40.911Z,6.50
2022-11-15T03:37:34.981Z,6.15
2022-11-15T03:40:26.890Z,6.53
2022-11-15T03:43:42.189Z,7.95
2022-11-15T03:46:35.036Z,7.18
2022-11-15T03:49:26.567Z,7.45
2022-11-15T03:52:12.630Z,6.23
2022-11-15T03:55:00.880Z,6.97
2022-11-15T03:57:46.972Z,8.05
2022-11-15T04:00:32.918Z,6.90
2022-11-15T04:03:18.270Z,7.40
2022-11-15T04:06:03.795Z,7.28
2022-11-15T04:08:49.066Z,7.47
2022-11-15T04:11:34.370Z,8.13
2022-11-15T04:14:20.008Z,7.18
2022-11-15T04:17:05.335Z,7.72
2022-11-15T04:20:09.446Z,7.90
2022-11-15T04:23:14.879Z,8.15
2022-11-15T04:26:16.812Z,7.75
2022-11-15T04:29:20.595Z,8.18
2022-11-15T04:32:07.823Z,8.18
2022-11-15T04:34:52.904Z,8.00
2022-11-15T04:37:38.266Z,7.47
2022-11-15T04:40:24.056Z,8.27
2022-11-15T04:43:09.290Z,7.95
2022-11-15T04:45:54.850Z,7.47
2022-11-15T04:48:40.265Z,7.88
2022-11-15T04:51:25.781Z,7.43
2022-11-15T04:54:11.119Z,6.43
2022-11-15T04:56:56.539Z,7.80
2022-11-15T04:59:42.137Z,6.85
2022-11-15T05:02:47.416Z,7.28
2022-11-15T05:05:32.381Z,7.18
2022-11-15T05:08:17.940Z,7.28
2022-11-15T05:11:03.228Z,8.02
2022-11-15T05:13:49.586Z,7.43
2022-11-15T05:16:34.946Z,6.75
2022-11-15T05:19:20.460Z,7.70
2022-11-15T05:22:06.087Z,7.25
2022-11-15T05:24:51.542Z,6.85
2022-11-15T05:27:37.066Z,6.78
2022-11-15T05:30:23.029Z,7.07
2022-11-15T05:33:08.624Z,7.22
2022-11-15T05:36:01.899Z,6.70
2022-11-15T05:38:49.125Z,6.50
2022-11-15T05:41:36.727Z,5.82
2022-11-15T05:44:24.332Z,5.50
2022-11-15T05:47:12.781Z,5.53
2022-11-15T05:49:58.916Z,5.05
2022-11-15T05:52:46.200Z,5.32
2022-11-15T05:55:32.262Z,5.63
2022-11-15T05:58:18.552Z,5.95
2022-11-15T06:01:03.929Z,5.95
2022-11-15T06:03:49.551Z,5.80
2022-11-15T06:06:34.958Z,5.50
2022-11-15T06:09:20.251Z,5.85
2022-11-15T06:12:06.087Z,5.93
2022-11-15T06:14:51.508Z,6.22
2022-11-15T06:17:36.965Z,5.80
2022-11-15T06:20:23.123Z,5.47
2022-11-15T06:23:08.587Z,6.55
2022-11-15T06:25:54.119Z,5.55
2022-11-15T06:28:39.519Z,5.97
2022-11-15T06:31:24.973Z,5.97
2022-11-15T06:34:10.510Z,5.20
2022-11-15T06:36:55.987Z,5.65
2022-11-15T06:39:41.669Z,5.20
2022-11-15T06:42:27.099Z,5.57
2022-11-15T06:45:12.554Z,5.53
2022-11-15T06:47:58.734Z,4.93
2022-11-15T06:50:44.067Z,5.90
2022-11-15T06:53:31.191Z,5.45
2022-11-15T06:56:16.593Z,5.57
2022-11-15T06:59:02.166Z,5.32
2022-11-15T07:01:47.873Z,5.03
2022-11-15T07:04:33.166Z,6.70
2022-11-15T07:07:18.666Z,5.70
2022-11-15T07:10:04.301Z,5.60
2022-11-15T07:12:50.385Z,6.32
2022-11-15T07:15:35.598Z,5.20
2022-11-15T07:18:21.366Z,5.55
2022-11-15T07:21:09.410Z,5.55
2022-11-15T07:23:55.203Z,5.20
2022-11-15T07:26:40.574Z,5.30
2022-11-15T07:29:26.012Z,5.65
2022-11-15T07:32:11.505Z,4.93
2022-11-15T07:34:56.936Z,4.85
2022-11-15T07:37:42.419Z,4.75
2022-11-15T07:40:29.665Z,5.15
2022-11-15T07:43:15.150Z,5.72
2022-11-15T07:46:10.252Z,5.03
2022-11-15T07:48:56.234Z,4.93
2022-11-15T07:51:41.734Z,5.35
2022-11-15T07:54:27.453Z,5.28
2022-11-15T07:57:12.897Z,5.25
2022-11-15T07:59:58.288Z,4.45
2022-11-15T08:02:43.960Z,4.32
2022-11-15T08:05:29.356Z,4.63
2022-11-15T08:08:14.826Z,3.85
2022-11-15T08:11:00.637Z,5.25
2022-11-15T08:13:46.131Z,4.97
2022-11-15T08:16:31.756Z,3.63
2022-11-15T08:19:17.182Z,4.65
2022-11-15T08:22:02.767Z,3.25
2022-11-15T08:24:48.254Z,3.08
2022-11-15T08:27:33.754Z,2.70
2022-11-15T08:30:19.408Z,2.65
2022-11-15T08:33:05.022Z,2.95
2022-11-15T08:35:50.323Z,3.40
2022-11-15T08:38:35.917Z,3.78
2022-11-15T08:41:27.599Z,3.47
2022-11-15T08:44:12.771Z,3.25
2022-11-15T08:46:58.178Z,3.10
2022-11-15T08:49:43.663Z,3.47
2022-11-15T08:52:29.099Z,3.00
2022-11-15T08:55:16.887Z,3.17
2022-11-15T08:58:02.961Z,3.30
2022-11-15T09:00:48.452Z,2.72
2022-11-15T09:03:33.963Z,2.70
2022-11-15T09:06:19.555Z,3.10
2022-11-15T09:09:04.974Z,2.90
2022-11-15T09:11:51.608Z,2.33
2022-11-15T09:14:37.467Z,2.70
2022-11-15T09:17:24.896Z,2.20
2022-11-15T09:20:27.773Z,2.45
2022-11-15T09:23:13.399Z,2.33
2022-11-15T09:26:04.250Z,2.00
2022-11-15T09:28:49.851Z,2.00
2022-11-15T09:31:34.943Z,1.58
2022-11-15T09:34:21.886Z,1.65
2022-11-15T09:37:07.242Z,1.50
2022-11-15T09:39:53.319Z,1.60
2022-11-15T09:43:05.807Z,1.75
2022-11-15T09:46:16.195Z,1.55
2022-11-15T09:49:03.332Z,1.23
2022-11-15T09:51:48.068Z,1.35
2022-11-15T09:57:16.591Z,1.33
2022-11-15T10:00:45.500Z,1.10
2022-11-15T10:05:37.759Z,1.20
2022-11-15T10:08:59.075Z,1.05
2022-11-15T10:11:39.798Z,0.98
2022-11-15T10:14:19.740Z,1.27
2022-11-15T10:17:10.440Z,1.23
2022-11-15T10:19:56.564Z,1.10
2022-11-15T10:22:40.567Z,1.27
2022-11-15T10:27:37.397Z,0.80
2022-11-15T10:30:11.130Z,1.10
2022-11-15T10:32:38.011Z,1.00
2022-11-15T10:35:19.080Z,1.13
2022-11-15T10:37:45.796Z,1.20
2022-11-15T10:40:40.241Z,1.08
2022-11-15T10:43:18.803Z,0.90
2022-11-15T10:45:46.780Z,1.10
2022-11-15T10:48:13.427Z,1.00
2022-11-15T10:50:42.647Z,1.20
2022-11-15T10:53:33.178Z,0.95
2022-11-15T10:56:09.808Z,1.02
2022-11-15T10:58:43.685Z,1.00
2022-11-15T11:01:32.930Z,0.88
2022-11-15T11:04:08.166Z,1.10
2022-11-15T11:06:54.435Z,1.13
2022-11-15T11:09:28.628Z,1.15
2022-11-15T11:11:56.546Z,0.98
2022-11-15T11:14:34.642Z,1.00
2022-11-15T11:17:14.371Z,1.00
2022-11-15T11:20:01.548Z,0.65
2022-11-15T11:22:36.035Z,0.70
2022-11-15T11:25:09.318Z,0.85
2022-11-15T11:28:06.519Z,0.80
2022-11-15T11:30:58.033Z,0.82
2022-11-15T11:33:40.929Z,0.75
2022-11-15T11:36:21.582Z,0.77
2022-11-15T11:38:55.794Z,0.98
2022-11-15T11:41:39.576Z,0.70
2022-11-15T11:44:18.038Z,0.77
2022-11-15T11:46:49.027Z,0.80
2022-11-15T11:49:30.854Z,1.37
2022-11-15T11:52:04.972Z,1.08
2022-11-15T11:54:49.728Z,1.17
2022-11-15T11:57:36.516Z,1.23
2022-11-15T12:00:05.392Z,0.90
2022-11-15T12:02:48.103Z,0.90
2022-11-15T12:05:28.249Z,0.80
2022-11-15T12:08:04.209Z,0.90
2022-11-15T12:10:34.332Z,0.93
2022-11-15T12:13:19.442Z,0.55
2022-11-15T12:16:01.469Z,0.75
2022-11-15T12:18:30.080Z,1.13
2022-11-15T12:21:07.169Z,1.30
2022-11-15T12:23:41.938Z,1.00
2022-11-15T12:26:19.800Z,0.90
2022-11-15T12:29:06.432Z,0.80
2022-11-15T12:31:41.962Z,1.17
2022-11-15T12:34:20.991Z,1.23
2022-11-15T12:36:49.006Z,1.13
2022-11-15T12:39:16.954Z,1.00
2022-11-15T12:42:05.303Z,1.13
2022-11-15T12:44:31.975Z,0.82
2022-11-15T12:46:58.692Z,1.08
2022-11-15T12:49:45.685Z,1.00
2022-11-15T12:52:12.638Z,1.00
2022-11-15T12:54:42.061Z,1.08
2022-11-15T12:57:08.698Z,0.75
2022-11-15T12:59:56.269Z,1.10
2022-11-15T13:02:32.978Z,0.90
2022-11-15T13:05:23.718Z,1.00
2022-11-15T13:07:50.649Z,0.70
2022-11-15T13:10:17.319Z,1.23
2022-11-15T13:12:46.828Z,0.80
2022-11-15T13:15:13.570Z,1.30
2022-11-15T13:17:47.296Z,1.23
2022-11-15T13:20:16.729Z,1.10
2022-11-15T13:22:51.651Z,1.42
2022-11-15T13:25:42.549Z,1.25
2022-11-15T13:28:20.339Z,1.15
2022-11-15T13:30:53.567Z,1.67
2022-11-15T13:33:33.045Z,1.30
2022-11-15T13:36:07.359Z,1.35
2022-11-15T13:38:36.798Z,1.48
2022-11-15T13:41:30.817Z,1.33
2022-11-15T13:43:59.207Z,1.38
2022-11-15T13:46:36.545Z,1.45
2022-11-15T13:49:06.156Z,2.60
2022-11-15T13:51:55.353Z,1.30
2022-11-15T13:54:36.819Z,1.50
2022-11-15T13:57:16.838Z,1.63
2022-11-15T14:00:23.047Z,1.60
2022-11-15T14:02:49.783Z,1.83
2022-11-15T14:05:22.179Z,1.60
2022-11-15T14:07:55.808Z,1.20
2022-11-15T14:10:37.235Z,1.17
2022-11-15T14:13:11.003Z,1.30
2022-11-15T14:15:39.704Z,1.30
2022-11-15T14:18:07.368Z,1.38
2022-11-15T14:20:39.501Z,1.38
2022-11-15T14:23:27.500Z,1.38
2022-11-15T14:25:56.456Z,1.23
2022-11-15T14:28:26.118Z,1.45
2022-11-15T14:30:54.767Z,1.30
2022-11-15T14:33:38.468Z,1.58
2022-11-15T14:36:23.497Z,1.30
2022-11-15T14:38:50.308Z,1.50
2022-11-15T14:41:27.258Z,9.40
2022-11-15T14:43:54.328Z,1.60
2022-11-15T14:46:21.118Z,1.73
2022-11-15T14:48:47.812Z,1.38
2022-11-15T14:51:17.466Z,1.85
2022-11-15T14:53:45.658Z,1.20
2022-11-15T14:56:13.125Z,1.20
2022-11-15T14:58:39.935Z,1.45
2022-11-15T15:01:26.369Z,1.90
2022-11-15T15:03:56.681Z,1.30
2022-11-15T15:06:23.573Z,1.20
2022-11-15T15:08:51.817Z,1.65
2022-11-15T15:11:28.397Z,1.70
2022-11-15T15:13:57.970Z,1.40
2022-11-15T15:16:25.552Z,2.25
2022-11-15T15:18:52.620Z,1.58
2022-11-15T15:21:23.917Z,1.50
2022-11-15T15:23:51.343Z,1.70
2022-11-15T15:26:18.432Z,1.52
2022-11-15T15:28:45.172Z,1.48
2022-11-15T15:31:12.226Z,1.48
2022-11-15T15:33:39.147Z,1.30
2022-11-15T15:36:09.710Z,1.50
2022-11-15T15:38:36.694Z,1.60
2022-11-15T15:41:04.474Z,1.50
2022-11-15T15:43:31.168Z,1.42
2022-11-15T15:45:57.885Z,1.77
2022-11-15T15:48:27.900Z,1.38
2022-11-15T15:50:54.584Z,1.50
2022-11-15T15:53:21.332Z,1.63
2022-11-15T15:55:48.018Z,1.40
2022-11-15T15:58:14.747Z,1.40
2022-11-15T16:00:41.599Z,1.17
2022-11-15T16:03:08.452Z,1.92
2022-11-15T16:05:35.459Z,1.50
2022-11-15T16:08:02.271Z,1.55
2022-11-15T16:10:31.787Z,1.63
2022-11-15T16:12:59.112Z,1.92
2022-11-15T16:15:28.968Z,1.50
2022-11-15T16:18:01.493Z,2.20
2022-11-15T16:20:34.395Z,1.98
2022-11-15T16:23:07.576Z,1.67
2022-11-15T16:25:51.503Z,1.73
2022-11-15T16:28:29.946Z,1.90
2022-11-15T16:31:00.973Z,1.80
2022-11-15T16:33:27.673Z,2.10
2022-11-15T16:35:54.397Z,1.77
2022-11-15T16:38:21.136Z,2.10
2022-11-15T16:40:47.984Z,2.25
2022-11-15T16:43:14.868Z,1.88
2022-11-15T16:45:41.740Z,2.15
2022-11-15T16:48:23.946Z,1.98
2022-11-15T16:50:50.970Z,2.50
2022-11-15T16:53:17.698Z,2.00
2022-11-15T16:55:44.762Z,1.80
2022-11-15T16:58:11.531Z,2.35
2022-11-15T17:00:38.249Z,1.67
2022-11-15T17:03:05.112Z,2.35
2022-11-15T17:05:31.943Z,1.85
2022-11-15T17:07:58.806Z,2.05
2022-11-15T17:10:26.921Z,1.67
2022-11-15T17:12:55.899Z,1.85
2022-11-15T17:15:24.408Z,1.85
2022-11-15T17:17:53.246Z,2.17
2022-11-15T17:20:21.964Z,2.15
2022-11-15T17:22:48.832Z,1.60
2022-11-15T17:25:15.721Z,1.60
2022-11-15T17:27:42.718Z,1.63
2022-11-15T17:30:12.523Z,1.60
2022-11-15T17:32:39.601Z,1.40
2022-11-15T17:35:12.027Z,1.60
2022-11-15T17:37:41.895Z,1.55
2022-11-15T17:40:09.144Z,1.50
2022-11-15T17:42:36.047Z,1.52
2022-11-15T17:45:08.377Z,1.27
2022-11-15T17:47:36.655Z,1.52
2022-11-15T17:50:03.964Z,1.60
2022-11-15T17:52:30.722Z,1.98
2022-11-15T17:54:57.410Z,2.00
2022-11-15T17:57:24.185Z,2.58
2022-11-15T17:59:51.043Z,2.45
2022-11-15T18:02:17.769Z,2.00
2022-11-15T18:04:44.497Z,2.42
2022-11-15T18:07:12.323Z,2.38
2022-11-15T18:09:42.289Z,2.65
2022-11-15T18:12:10.070Z,2.30
2022-11-15T18:14:37.036Z,2.30
2022-11-15T18:17:03.795Z,2.47
2022-11-15T18:19:30.595Z,2.30
2022-11-15T18:21:57.520Z,2.75
2022-11-15T18:24:26.870Z,2.85
2022-11-15T18:26:54.056Z,3.38
2022-11-15T18:29:21.621Z,2.67
2022-11-15T18:31:50.496Z,3.08
2022-11-15T18:34:17.886Z,3.47
2022-11-15T18:36:44.753Z,2.53
2022-11-15T18:39:16.289Z,2.95
2022-11-15T18:41:44.808Z,2.50
2022-11-15T18:44:12.104Z,2.80
2022-11-15T18:46:39.845Z,3.38
2022-11-15T18:49:07.705Z,2.75
2022-11-15T18:51:36.850Z,2.95
2022-11-15T18:54:04.418Z,2.72
2022-11-15T18:56:32.493Z,2.92
2022-11-15T18:59:05.078Z,2.85
2022-11-15T19:01:37.552Z,2.97
2022-11-15T19:04:14.429Z,2.50
2022-11-15T19:06:42.746Z,3.13
2022-11-15T19:09:11.180Z,2.92
2022-11-15T19:11:39.946Z,3.47
2022-11-15T19:14:14.933Z,2.50
2022-11-15T19:16:50.230Z,3.30
2022-11-15T19:19:19.465Z,3.35
2022-11-15T19:21:46.927Z,3.20
2022-11-15T19:24:14.337Z,3.50
2022-11-15T19:26:41.220Z,2.85
2022-11-15T19:29:13.733Z,2.70
2022-11-15T19:31:40.586Z,2.75
2022-11-15T19:34:08.038Z,3.50
2022-11-15T19:36:40.607Z,2.78
2022-11-15T19:39:12.531Z,2.88
2022-11-15T19:44:11.369Z,3.20
2022-11-15T19:46:38.612Z,2.40
2022-11-15T19:49:07.817Z,3.20
2022-11-15T19:51:34.638Z,3.60
2022-11-15T19:54:06.296Z,2.65
2022-11-15T19:56:34.823Z,2.85
2022-11-15T19:59:02.144Z,2.88
2022-11-15T20:01:32.044Z,2.80
2022-11-15T20:04:00.226Z,2.70
2022-11-15T20:06:35.998Z,2.42
2022-11-15T20:09:03.302Z,2.47
2022-11-15T20:11:30.225Z,2.53
2022-11-15T20:13:59.360Z,2.50
2022-11-15T20:16:26.173Z,2.53
2022-11-15T20:18:53.297Z,2.63
2022-11-15T20:21:20.609Z,2.42
2022-11-15T20:23:47.928Z,2.42
2022-11-15T20:26:15.199Z,2.53
2022-11-15T20:28:43.954Z,2.15
2022-11-15T20:31:11.811Z,2.13
2022-11-15T20:33:38.610Z,2.25
2022-11-15T20:36:11.637Z,2.28
2022-11-15T20:38:38.630Z,2.55
2022-11-15T20:41:05.708Z,1.80
2022-11-15T20:43:32.506Z,1.48
2022-11-15T20:45:59.478Z,1.60
2022-11-15T20:48:26.204Z,2.13
2022-11-15T20:51:07.063Z,1.65
2022-11-15T20:53:34.654Z,2.13
2022-11-15T20:56:07.819Z,1.80
2022-11-15T20:58:36.562Z,1.70
2022-11-15T21:01:04.636Z,1.38
2022-11-15T21:03:31.678Z,1.50
2022-11-15T21:05:58.682Z,1.50
2022-11-15T21:08:25.399Z,1.50
2022-11-15T21:11:12.162Z,1.52
2022-11-15T21:13:39.569Z,1.55
2022-11-15T21:16:06.822Z,1.40
2022-11-15T21:18:33.979Z,1.73
2022-11-15T21:21:07.365Z,1.30
2022-11-15T21:23:34.171Z,1.50
2022-11-15T21:26:00.873Z,1.58
2022-11-15T21:28:27.624Z,1.42
2022-11-15T21:30:56.384Z,1.52
2022-11-15T21:33:24.017Z,1.23
2022-11-15T21:35:51.545Z,1.77
2022-11-15T21:38:18.321Z,1.85
2022-11-15T21:40:45.035Z,2.50
2022-11-15T21:43:11.779Z,1.83
2022-11-15T21:45:38.747Z,2.17
2022-11-15T21:48:05.916Z,1.60
2022-11-15T21:50:32.611Z,1.50
2022-11-15T21:52:59.501Z,1.60
2022-11-15T21:55:26.523Z,2.03
2022-11-15T21:57:53.256Z,2.10
2022-11-15T22:00:38.519Z,1.50
2022-11-15T22:03:05.241Z,1.73
2022-11-15T22:05:32.180Z,1.48
2022-11-15T22:07:58.916Z,2.03
2022-11-15T22:10:25.723Z,1.73
2022-11-15T22:12:52.456Z,1.63
2022-11-15T22:15:19.233Z,1.23
2022-11-15T22:17:58.237Z,1.70
2022-11-15T22:23:12.630Z,1.50
2022-11-15T22:25:39.386Z,1.70
2022-11-15T22:28:06.101Z,1.52
2022-11-15T22:30:32.980Z,1.70
2022-11-15T22:32:59.682Z,1.73
2022-11-15T22:35:26.412Z,1.40
2022-11-15T22:37:53.266Z,1.90
2022-11-15T22:40:20.112Z,1.90
2022-11-15T22:42:46.963Z,1.45
2022-11-15T22:45:13.737Z,1.60
2022-11-15T22:47:40.471Z,1.50
2022-11-15T22:50:07.841Z,1.75
2022-11-15T22:52:35.323Z,2.53
2022-11-15T22:55:02.091Z,1.42
2022-11-15T22:57:28.835Z,1.80
2022-11-15T22:59:55.609Z,1.45
2022-11-15T23:02:22.506Z,1.70
2022-11-15T23:04:49.244Z,1.50
2022-11-15T23:07:15.979Z,1.40
2022-11-15T23:09:45.413Z,1.90
2022-11-15T23:12:35.588Z,1.60
2022-11-15T23:15:02.345Z,1.85
2022-11-15T23:17:29.306Z,1.55
2022-11-15T23:19:56.079Z,1.83
2022-11-15T23:22:41.698Z,1.60
2022-11-15T23:25:08.732Z,2.00
2022-11-15T23:27:35.476Z,1.60
2022-11-15T23:30:21.039Z,1.50
2022-11-15T23:33:06.388Z,1.67
2022-11-15T23:35:33.136Z,1.50
2022-11-15T23:38:00.117Z,1.73
2022-11-15T23:40:27.183Z,1.80
2022-11-15T23:42:53.922Z,1.35
2022-11-15T23:45:20.668Z,1.73
2022-11-15T23:47:47.506Z,1.88
2022-11-15T23:50:14.448Z,1.45
2022-11-15T23:52:41.194Z,1.65
2022-11-15T23:55:08.370Z,2.00
2022-11-15T23:57:35.188Z,1.85
